createdAt,value
2019-03-31T00:01:51.031Z,100671.23
2019-03-31T00:04:21.003Z,100655.09
2019-03-31T00:06:50.811Z,100652.18
2019-03-31T00:09:20.729Z,100652.18
2019-03-31T00:11:50.602Z,100577.03
2019-03-31T00:14:20.700Z,100650.58
2019-03-31T00:19:59.824Z,100638.41
2019-03-31T00:28:34.510Z,100650.82
2019-03-31T00:34:14.169Z,100642.05
2019-03-31T00:37:03.052Z,100632.14
2019-03-31T00:39:53.248Z,100643.93
2019-03-31T00:42:23.060Z,100644.81
2019-03-31T00:47:48.848Z,100556.05
2019-03-31T00:50:39.155Z,100654.99
2019-03-31T00:53:29.405Z,100618.52
2019-03-31T00:55:59.432Z,100606.61
2019-03-31T00:58:29.350Z,100648.34
2019-03-31T01:01:38.235Z,100652.56
2019-03-31T01:07:24.229Z,100663.53
2019-03-31T01:09:57.175Z,100668.38
2019-03-31T01:12:28.109Z,100670.59
2019-03-31T01:14:58.444Z,100670.17
2019-03-31T01:17:28.385Z,100672.40
2019-03-31T01:20:00.031Z,100668.08
2019-03-31T01:28:31.315Z,100663.81
2019-03-31T01:34:07.589Z,100675.59
2019-03-31T01:36:37.613Z,100679.57
2019-03-31T01:48:06.938Z,100691.40
2019-03-31T01:50:36.744Z,100672.68
2019-03-31T01:53:06.916Z,100684.86
2019-03-31T01:55:37.126Z,100572.09
2019-03-31T01:58:07.102Z,100672.59
2019-03-31T02:00:58.056Z,100667.44
2019-03-31T02:03:27.957Z,100670.97
2019-03-31T02:14:24.040Z,100662.02
2019-03-31T02:20:02.988Z,100685.67
2019-03-31T02:22:33.120Z,100671.67
2019-03-31T02:25:02.936Z,100678.69
2019-03-31T02:27:33.068Z,100667.35
2019-03-31T02:36:10.145Z,100555.27
2019-03-31T02:38:39.943Z,100669.97
2019-03-31T02:41:09.961Z,100660.78
2019-03-31T02:43:39.795Z,100681.45
2019-03-31T02:46:09.865Z,100668.27
2019-03-31T02:48:39.696Z,100668.27
2019-03-31T02:51:09.790Z,100663.03
2019-03-31T02:53:39.635Z,100677.29
2019-03-31T02:56:30.034Z,100678.02
2019-03-31T02:59:18.746Z,100634.78
2019-03-31T03:01:48.950Z,100634.78
2019-03-31T03:04:58.034Z,100680.63
2019-03-31T03:14:03.851Z,100698.81
2019-03-31T03:19:53.588Z,100689.58
2019-03-31T03:22:23.705Z,100705.98
2019-03-31T03:30:58.773Z,100717.45
2019-03-31T03:33:28.687Z,100710.52
2019-03-31T03:35:58.759Z,100703.63
2019-03-31T03:38:30.229Z,100725.05
2019-03-31T03:41:00.440Z,100747.73
2019-03-31T03:46:25.872Z,100739.79
2019-03-31T03:48:55.726Z,100740.75
2019-03-31T03:54:20.992Z,100751.66
2019-03-31T03:56:50.891Z,100757.84
2019-03-31T04:02:16.245Z,100763.17
2019-03-31T04:04:46.059Z,100693.06
2019-03-31T04:13:35.463Z,100781.70
2019-03-31T04:16:05.601Z,100781.78
2019-03-31T04:18:35.396Z,100808.78
2019-03-31T04:21:05.337Z,100785.63
2019-03-31T04:23:35.150Z,100805.25
2019-03-31T04:26:23.850Z,100810.57
2019-03-31T04:28:53.878Z,100793.56
2019-03-31T04:37:39.283Z,100690.84
2019-03-31T04:40:09.461Z,100816.21
2019-03-31T04:42:39.289Z,100808.45
2019-03-31T04:45:09.343Z,100828.02
2019-03-31T04:47:39.175Z,100832.73
2019-03-31T04:50:09.275Z,100836.66
2019-03-31T04:52:40.092Z,100837.06
2019-03-31T04:55:10.043Z,100849.23
2019-03-31T04:57:40.053Z,100860.44
2019-03-31T05:00:10.068Z,100864.37
2019-03-31T05:02:40.185Z,100865.11
2019-03-31T05:05:30.437Z,100860.67
2019-03-31T05:08:00.269Z,100867.14
2019-03-31T05:10:30.286Z,100879.82
2019-03-31T05:13:00.120Z,100881.77
2019-03-31T05:24:26.898Z,100808.44
2019-03-31T05:26:56.915Z,100909.52
2019-03-31T05:32:22.960Z,100904.45
2019-03-31T05:38:01.960Z,100941.23
2019-03-31T05:40:31.823Z,100857.64
2019-03-31T05:43:02.289Z,100952.57
2019-03-31T05:48:27.635Z,100972.19
2019-03-31T05:50:57.464Z,100977.50
2019-03-31T05:53:27.354Z,100980.88
2019-03-31T05:58:52.770Z,100997.73
2019-03-31T06:01:22.720Z,101003.41
2019-03-31T06:07:08.433Z,101025.61
2019-03-31T06:12:28.738Z,101033.39
2019-03-31T06:15:09.130Z,101024.99
2019-03-31T06:17:39.160Z,101046.33
2019-03-31T06:20:09.084Z,101053.70
2019-03-31T06:28:34.060Z,101064.87
2019-03-31T06:31:04.475Z,101076.21
2019-03-31T06:33:34.267Z,101091.01
2019-03-31T06:36:04.170Z,101101.84
2019-03-31T06:44:39.073Z,101109.55
2019-03-31T06:47:29.353Z,101111.66
2019-03-31T06:49:59.177Z,101120.75
2019-03-31T06:55:24.357Z,101129.02
2019-03-31T06:57:54.417Z,101149.92
2019-03-31T07:00:24.406Z,101142.39
2019-03-31T07:02:54.339Z,101156.26
2019-03-31T07:05:24.160Z,101161.06
2019-03-31T07:07:54.177Z,101157.93
2019-03-31T07:10:43.015Z,101174.92
2019-03-31T07:13:12.829Z,101181.39
2019-03-31T07:15:42.856Z,101185.73
2019-03-31T07:23:44.619Z,101085.33
2019-03-31T07:29:09.986Z,101213.56
2019-03-31T07:31:39.809Z,101106.12
2019-03-31T07:34:09.992Z,101223.94
2019-03-31T07:36:39.837Z,101179.61
2019-03-31T07:39:10.066Z,101233.18
2019-03-31T07:41:41.537Z,101238.42
2019-03-31T07:44:15.155Z,101255.79
2019-03-31T07:52:33.375Z,101257.56
2019-03-31T07:55:03.372Z,101267.62
2019-03-31T07:57:33.446Z,101279.16
2019-03-31T08:03:06.774Z,101283.59
2019-03-31T08:08:46.242Z,101290.98
2019-03-31T08:11:17.218Z,101308.80
2019-03-31T08:16:37.428Z,101199.98
2019-03-31T08:28:13.859Z,101348.67
2019-03-31T08:33:57.950Z,101358.77
2019-03-31T08:42:10.228Z,101376.58
2019-03-31T08:44:40.035Z,101376.53
2019-03-31T08:47:30.365Z,101389.47
2019-03-31T08:53:20.224Z,101330.28
2019-03-31T08:55:50.576Z,101401.02
2019-03-31T08:58:20.412Z,101400.02
2019-03-31T09:00:54.593Z,101415.22
2019-03-31T09:06:33.734Z,101425.72
2019-03-31T09:09:24.113Z,101427.39
2019-03-31T09:11:53.969Z,101439.50
2019-03-31T09:20:30.672Z,101437.47
2019-03-31T09:23:00.513Z,101449.33
2019-03-31T09:25:30.572Z,101455.86
2019-03-31T09:28:00.441Z,101343.64
2019-03-31T09:30:30.408Z,101461.79
2019-03-31T09:33:00.232Z,101454.78
2019-03-31T09:35:30.209Z,101461.11
2019-03-31T09:38:00.055Z,101459.56
2019-03-31T09:43:26.044Z,101462.35
2019-03-31T09:46:16.225Z,101470.59
2019-03-31T09:48:46.089Z,101465.65
2019-03-31T09:51:16.249Z,101474.92
2019-03-31T09:53:46.075Z,101484.05
2019-03-31T09:56:16.055Z,101482.13
2019-03-31T09:58:45.862Z,101492.61
2019-03-31T10:01:16.198Z,101490.85
2019-03-31T10:03:46.018Z,101482.89
2019-03-31T10:09:22.478Z,101442.17
2019-03-31T10:11:52.598Z,101500.29
2019-03-31T10:14:22.455Z,101504.98
2019-03-31T10:16:52.467Z,101507.13
2019-03-31T10:19:22.315Z,101501.48
2019-03-31T10:21:52.341Z,101504.82
2019-03-31T10:24:22.166Z,101503.59
2019-03-31T10:26:52.006Z,101541.61
2019-03-31T10:29:22.112Z,101538.95
2019-03-31T10:38:07.268Z,101525.52
2019-03-31T10:40:37.344Z,101541.70
2019-03-31T10:43:26.372Z,101533.64
2019-03-31T10:45:56.184Z,101533.64
2019-03-31T10:48:26.615Z,101548.46
2019-03-31T10:50:56.443Z,101548.66
2019-03-31T10:53:26.405Z,101559.22
2019-03-31T11:01:40.495Z,101570.05
2019-03-31T11:07:19.647Z,101585.35
2019-03-31T11:18:23.507Z,101612.76
2019-03-31T11:23:49.390Z,101608.06
2019-03-31T11:26:19.276Z,101617.14
2019-03-31T11:28:49.327Z,101622.97
2019-03-31T11:34:28.320Z,101633.95
2019-03-31T11:37:12.466Z,101637.58
2019-03-31T11:39:29.916Z,101643.58
2019-03-31T11:41:59.827Z,101642.84
2019-03-31T11:47:38.793Z,101643.01
2019-03-31T11:50:47.891Z,101637.34
2019-03-31T11:53:17.816Z,101637.90
2019-03-31T11:55:47.927Z,101657.56
2019-03-31T11:58:17.729Z,101659.61
2019-03-31T12:03:31.115Z,101652.28
2019-03-31T12:06:01.001Z,101655.20
2019-03-31T12:08:30.829Z,101660.41
2019-03-31T12:11:19.441Z,101653.11
2019-03-31T12:13:49.496Z,101654.53
2019-03-31T12:16:19.330Z,101638.62
2019-03-31T12:19:08.137Z,101661.98
2019-03-31T12:21:38.103Z,101657.45
2019-03-31T12:24:07.995Z,101670.82
2019-03-31T12:26:37.904Z,101666.30
2019-03-31T12:29:07.873Z,101640.78
2019-03-31T12:32:16.751Z,101680.67
2019-03-31T12:38:11.535Z,101674.65
2019-03-31T12:40:41.983Z,101673.77
2019-03-31T12:43:11.871Z,101686.28
2019-03-31T12:46:02.209Z,101677.77
2019-03-31T12:48:32.006Z,101681.81
2019-03-31T12:51:01.980Z,101692.66
2019-03-31T12:53:31.830Z,101698.59
2019-03-31T12:56:12.930Z,101698.59
2019-03-31T13:02:02.786Z,101706.84
2019-03-31T13:04:32.641Z,101714.41
2019-03-31T13:07:02.475Z,101700.13
2019-03-31T13:09:32.356Z,101711.31
2019-03-31T13:12:02.200Z,101714.95
2019-03-31T13:14:32.087Z,101707.07
2019-03-31T13:23:09.407Z,101710.47
2019-03-31T13:31:43.897Z,101715.02
2019-03-31T13:34:14.091Z,101741.63
2019-03-31T13:36:44.019Z,101720.45
2019-03-31T13:39:14.255Z,101740.53
2019-03-31T13:47:35.059Z,101717.77
2019-03-31T13:56:22.666Z,101736.77
2019-03-31T13:58:52.834Z,101729.80
2019-03-31T14:07:15.293Z,101670.73
2019-03-31T14:12:54.423Z,101734.55
2019-03-31T14:15:43.010Z,101733.97
2019-03-31T14:20:53.649Z,101746.78
2019-03-31T14:26:47.516Z,101741.18
2019-03-31T14:29:34.466Z,101744.25
2019-03-31T14:32:04.476Z,101734.62
2019-03-31T14:37:43.475Z,101744.16
2019-03-31T14:40:13.475Z,101740.12
2019-03-31T14:42:43.341Z,101749.34
2019-03-31T14:45:17.265Z,101745.56
2019-03-31T14:48:07.437Z,101759.97
2019-03-31T14:50:58.035Z,101765.16
2019-03-31T14:53:28.261Z,101761.91
2019-03-31T14:55:58.979Z,101754.25
2019-03-31T14:58:28.982Z,101761.53
2019-03-31T15:00:58.835Z,101761.88
2019-03-31T15:06:24.405Z,101675.22
2019-03-31T15:12:03.458Z,101768.93
2019-03-31T15:14:33.327Z,101774.97
2019-03-31T15:17:23.496Z,101767.94
2019-03-31T15:19:53.444Z,101772.28
2019-03-31T15:22:23.299Z,101772.34
2019-03-31T15:24:53.265Z,101766.63
2019-03-31T15:27:42.292Z,101765.22
2019-03-31T15:30:12.434Z,101709.03
2019-03-31T15:35:39.900Z,101781.19
2019-03-31T15:38:30.135Z,101787.22
2019-03-31T15:40:59.989Z,101786.52
2019-03-31T15:43:30.052Z,101777.83
2019-03-31T15:46:18.588Z,101787.53
2019-03-31T15:48:48.432Z,101784.61
2019-03-31T15:51:18.376Z,101802.08
2019-03-31T15:53:48.215Z,101784.15
2019-03-31T15:56:29.085Z,101786.72
2019-03-31T16:01:54.781Z,101789.64
2019-03-31T16:04:24.600Z,101786.61
2019-03-31T16:06:54.522Z,101795.47
2019-03-31T16:09:24.329Z,101795.47
2019-03-31T16:11:54.326Z,101798.59
2019-03-31T16:14:23.724Z,101800.91
2019-03-31T16:17:12.051Z,101804.48
2019-03-31T16:19:41.568Z,101804.46
2019-03-31T16:22:10.894Z,101795.55
2019-03-31T16:24:42.984Z,101818.61
2019-03-31T16:27:51.687Z,101819.95
2019-03-31T16:33:16.137Z,101830.95
2019-03-31T16:35:45.617Z,101826.25
2019-03-31T16:41:10.602Z,101827.75
2019-03-31T16:43:39.919Z,101824.33
2019-03-31T16:46:48.548Z,101827.50
2019-03-31T16:49:17.846Z,101771.02
2019-03-31T16:51:47.278Z,101833.07
2019-03-31T16:54:16.571Z,101837.83
2019-03-31T16:56:46.200Z,101843.16
2019-03-31T17:02:12.120Z,101845.45
2019-03-31T17:04:41.442Z,101857.28
2019-03-31T17:07:10.950Z,101858.24
2019-03-31T17:09:50.891Z,101854.34
2019-03-31T17:12:11.373Z,101857.47
2019-03-31T17:14:41.118Z,101844.13
2019-03-31T17:17:10.414Z,101844.13
2019-03-31T17:19:39.783Z,101856.73
2019-03-31T17:22:09.124Z,101856.33
2019-03-31T17:24:38.457Z,101793.48
2019-03-31T17:27:07.862Z,101851.58
2019-03-31T17:29:37.141Z,101849.02
2019-03-31T17:32:06.447Z,101856.89
2019-03-31T17:34:35.828Z,101857.83
2019-03-31T17:37:05.138Z,101863.13
2019-03-31T17:39:34.477Z,101861.00
2019-03-31T17:42:03.791Z,101863.61
2019-03-31T17:44:33.083Z,101868.94
2019-03-31T17:47:02.384Z,101865.89
2019-03-31T17:49:31.717Z,101872.95
2019-03-31T17:52:01.475Z,101878.25
2019-03-31T17:54:30.961Z,101880.95
2019-03-31T17:57:00.231Z,101884.50
2019-03-31T17:59:29.659Z,101882.81
2019-03-31T18:01:59.016Z,101883.75
2019-03-31T18:07:23.439Z,101893.34
2019-03-31T18:09:55.082Z,101836.61
2019-03-31T18:12:24.431Z,101893.42
2019-03-31T18:14:54.150Z,101897.87
2019-03-31T18:17:23.427Z,101894.00
2019-03-31T18:19:53.186Z,101894.07
2019-03-31T18:22:22.484Z,101902.85
2019-03-31T18:24:52.318Z,101903.34
2019-03-31T18:27:21.616Z,101901.22
2019-03-31T18:29:51.319Z,101906.50
2019-03-31T18:32:20.621Z,101838.41
2019-03-31T18:34:50.565Z,101911.31
2019-03-31T18:37:19.845Z,101909.59
2019-03-31T18:39:49.548Z,101913.13
2019-03-31T18:42:18.826Z,101780.34
2019-03-31T18:48:24.434Z,101862.00
2019-03-31T18:50:53.982Z,101919.71
2019-03-31T18:53:42.225Z,101917.98
2019-03-31T18:59:38.729Z,101938.97
2019-03-31T19:02:27.004Z,101942.02
2019-03-31T19:05:15.247Z,101896.01
2019-03-31T19:08:03.796Z,101944.26
2019-03-31T19:10:51.981Z,101948.21
2019-03-31T19:13:38.634Z,101942.99
2019-03-31T19:16:26.825Z,101950.36
2019-03-31T19:19:17.782Z,101949.95
2019-03-31T19:22:05.015Z,101949.11
2019-03-31T19:24:46.196Z,101950.86
2019-03-31T19:30:26.950Z,101957.81
2019-03-31T19:33:15.346Z,101959.58
2019-03-31T19:35:55.723Z,101968.25
2019-03-31T19:38:44.002Z,101976.95
2019-03-31T19:41:32.259Z,101975.20
2019-03-31T19:47:15.694Z,101970.81
2019-03-31T19:50:02.829Z,101976.88
2019-03-31T19:52:49.631Z,101981.59
2019-03-31T19:55:36.569Z,101984.17
2019-03-31T19:58:29.143Z,101992.41
2019-03-31T20:01:17.168Z,101990.63
2019-03-31T20:04:04.087Z,101994.55
2019-03-31T20:06:58.502Z,101997.98
2019-03-31T20:09:46.704Z,102000.13
2019-03-31T20:12:34.899Z,101990.98
2019-03-31T20:15:23.258Z,101996.59
2019-03-31T20:18:31.871Z,101991.36
2019-03-31T20:21:08.135Z,101995.73
2019-03-31T20:23:59.261Z,101990.98
2019-03-31T20:26:47.452Z,101993.64
2019-03-31T20:29:40.360Z,101998.44
2019-03-31T20:32:27.274Z,102003.66
2019-03-31T20:35:15.649Z,102016.69
2019-03-31T20:38:03.888Z,102016.66
2019-03-31T20:40:59.164Z,102012.27
2019-03-31T20:43:47.370Z,102014.00
2019-03-31T20:46:16.671Z,102015.27
2019-03-31T20:48:46.357Z,102017.38
2019-03-31T20:54:11.439Z,102021.64
2019-03-31T20:56:40.726Z,101895.36
2019-03-31T20:59:29.299Z,102031.94
2019-03-31T21:01:59.101Z,102010.94
2019-03-31T21:04:47.350Z,101981.70
2019-03-31T21:07:16.638Z,102047.42
2019-03-31T21:09:46.173Z,102049.08
2019-03-31T21:12:15.477Z,101993.23
2019-03-31T21:14:45.119Z,102058.52
2019-03-31T21:17:14.426Z,102060.20
2019-03-31T21:19:43.888Z,102062.72
2019-03-31T21:22:13.176Z,102071.75
2019-03-31T21:24:42.526Z,102072.99
2019-03-31T21:27:11.828Z,102082.92
2019-03-31T21:29:41.427Z,102091.08
2019-03-31T21:32:10.710Z,102041.69
2019-03-31T21:34:40.410Z,102107.47
2019-03-31T21:37:09.726Z,102048.07
2019-03-31T21:39:39.358Z,102117.84
2019-03-31T21:42:08.624Z,102123.02
2019-03-31T21:44:39.870Z,102122.16
2019-03-31T21:47:09.158Z,102119.94
2019-03-31T21:49:57.500Z,102117.67
2019-03-31T21:52:27.073Z,102118.50
2019-03-31T21:54:56.352Z,102125.81
2019-03-31T21:57:26.183Z,102130.50
2019-03-31T21:59:55.456Z,102136.50
2019-03-31T22:02:25.219Z,102139.03
2019-03-31T22:04:54.522Z,102134.66
2019-03-31T22:07:23.846Z,102150.63
2019-03-31T22:09:53.126Z,102147.13
2019-03-31T22:12:22.426Z,102152.77
2019-03-31T22:14:51.701Z,102151.41
2019-03-31T22:17:21.311Z,102149.63
2019-03-31T22:19:50.596Z,102157.81
2019-03-31T22:22:20.357Z,102146.52
2019-03-31T22:24:49.710Z,102148.23
2019-03-31T22:27:19.443Z,102142.09
2019-03-31T22:29:48.790Z,102082.67
2019-03-31T22:32:18.348Z,102158.51
2019-03-31T22:34:47.645Z,102092.06
2019-03-31T22:37:17.456Z,102160.13
2019-03-31T22:39:46.766Z,102161.38
2019-03-31T22:42:16.395Z,102161.73
2019-03-31T22:45:05.270Z,102157.38
2019-03-31T22:47:34.604Z,102158.63
2019-03-31T22:53:12.876Z,102166.70
2019-03-31T22:55:42.413Z,102179.61
2019-03-31T22:58:11.707Z,102175.64
2019-03-31T23:00:41.193Z,102182.95
2019-03-31T23:03:10.520Z,102171.51
2019-03-31T23:05:40.147Z,102181.19
2019-03-31T23:08:09.448Z,102167.20
2019-03-31T23:10:38.836Z,102183.27
2019-03-31T23:13:08.111Z,102184.06
2019-03-31T23:15:37.504Z,102183.63
2019-03-31T23:18:06.801Z,102121.10
2019-03-31T23:20:36.419Z,102195.17
2019-03-31T23:23:05.793Z,102137.09
2019-03-31T23:25:35.389Z,102193.80
2019-03-31T23:28:04.710Z,102189.00
2019-03-31T23:30:34.368Z,102184.20
2019-03-31T23:33:03.672Z,102183.67
2019-03-31T23:35:33.245Z,102187.50
2019-03-31T23:38:02.557Z,102189.27
2019-03-31T23:40:32.118Z,102197.05
2019-03-31T23:43:04.480Z,102198.73
2019-03-31T23:45:34.246Z,102169.84
2019-03-31T23:48:03.876Z,102207.33
2019-03-31T23:50:33.184Z,102202.53
2019-03-31T23:53:02.492Z,102203.80
2019-03-31T23:55:31.811Z,102204.59
2019-03-31T23:58:02.109Z,102208.42
